Time;durP1;ratioP1;P1;durP2;ratioP2;P2;SDS_P1;SDS_P2;PMS_P1;PMS_P2;Temp;Humidity;BMP_temperature;BMP_pressure;BME280_temperature;BME280_humidity;BME280_pressure;Samples;Min_cycle;Max_cycle;Signal;HPM_P1;HPM_P2
2022/10/21 00:00:14;;;;;;;7.78;5.35;;;18.60;99.90;;;;;;5011083;28;20022;-76
2022/10/21 00:02:41;;;;;;;9.82;5.93;;;18.60;99.90;;;;;;5011312;28;20481;-77
2022/10/21 00:05:09;;;;;;;7.57;5.80;;;18.60;99.90;;;;;;5010294;28;20222;-77
2022/10/21 00:07:35;;;;;;;12.63;5.72;;;18.70;99.90;;;;;;5010607;28;20038;-77
2022/10/21 00:10:02;;;;;;;10.52;6.00;;;18.70;99.90;;;;;;5010787;28;20022;-77
2022/10/21 00:12:29;;;;;;;10.80;6.20;;;18.70;99.90;;;;;;4992761;28;20616;-77
2022/10/21 00:14:56;;;;;;;9.35;5.97;;;18.70;99.90;;;;;;5010510;28;20030;-76
2022/10/21 00:17:22;;;;;;;7.70;5.88;;;18.70;99.90;;;;;;5010686;28;20369;-76
2022/10/21 00:19:48;;;;;;;10.63;5.53;;;18.70;99.90;;;;;;5010799;28;20468;-77
2022/10/21 00:22:15;;;;;;;9.63;5.90;;;18.70;99.90;;;;;;5010438;28;20056;-77
2022/10/21 00:24:45;;;;;;;9.68;5.72;;;18.70;99.90;;;;;;4993102;28;20355;-76
2022/10/21 00:27:11;;;;;;;7.50;5.03;;;18.70;99.90;;;;;;5010235;28;20108;-77
2022/10/21 00:29:37;;;;;;;9.30;5.32;;;18.70;99.90;;;;;;5010755;28;20077;-77
2022/10/21 00:32:05;;;;;;;9.80;6.05;;;18.70;99.90;;;;;;5010710;28;20108;-75
2022/10/21 00:34:32;;;;;;;9.43;5.40;;;18.70;99.90;;;;;;5010280;28;20139;-77
2022/10/21 00:36:59;;;;;;;9.65;6.20;;;18.70;99.90;;;;;;5010346;28;20029;-77
2022/10/21 00:39:25;;;;;;;8.55;5.63;;;18.70;99.90;;;;;;5010296;28;20030;-75
2022/10/21 00:41:51;;;;;;;8.82;5.57;;;18.70;99.90;;;;;;5010518;28;20415;-77
2022/10/21 00:44:17;;;;;;;7.70;5.00;;;18.70;99.90;;;;;;5010127;28;20053;-77
2022/10/21 00:47:03;;;;;;;9.45;5.28;;;18.80;99.90;;;;;;5013177;28;20022;-78
2022/10/21 00:49:39;;;;;;;10.07;5.60;;;18.80;99.90;;;;;;5013705;28;20110;-76
2022/10/21 00:52:12;;;;;;;8.65;5.10;;;18.90;99.90;;;;;;5013982;28;20034;-77
2022/10/21 00:54:41;;;;;;;7.43;4.72;;;19.00;99.90;;;;;;5013698;28;20454;-76
2022/10/21 00:57:08;;;;;;;6.70;4.95;;;19.00;99.90;;;;;;5014045;28;20060;-75
2022/10/21 00:59:41;;;;;;;7.95;5.40;;;19.10;99.90;;;;;;4996057;28;20328;-77
2022/10/21 01:02:08;;;;;;;8.55;4.78;;;19.10;99.90;;;;;;5013690;28;20472;-77
2022/10/21 01:04:35;;;;;;;7.57;4.97;;;19.10;99.90;;;;;;5013239;28;20034;-75
2022/10/21 01:07:13;;;;;;;;;;;19.10;99.90;;;;;;5013896;28;20037;-77
2022/10/21 01:09:39;;;;;;;8.95;5.22;;;19.10;99.90;;;;;;5013590;28;20328;-77
2022/10/21 01:12:37;;;;;;;9.63;5.15;;;19.00;99.90;;;;;;5013227;28;20026;-75
2022/10/21 01:15:31;;;;;;;7.70;4.72;;;19.00;99.90;;;;;;5013366;28;20497;-76
2022/10/21 01:18:18;;;;;;;6.32;4.47;;;19.10;99.90;;;;;;4983128;28;20097;-76
2022/10/21 01:21:08;;;;;;;10.52;5.10;;;19.10;99.90;;;;;;5012997;28;20473;-76
2022/10/21 01:24:12;;;;;;;7.53;5.03;;;19.10;99.90;;;;;;5012601;28;20069;-75
2022/10/21 01:27:19;;;;;;;8.65;5.13;;;19.10;99.90;;;;;;5012994;28;20048;-77
2022/10/21 01:30:08;;;;;;;7.32;5.07;;;19.10;99.90;;;;;;4933315;29;20035;-77
2022/10/21 01:32:50;;;;;;;11.07;5.03;;;19.00;99.90;;;;;;5012440;28;20622;-76
2022/10/21 01:35:31;;;;;;;6.65;5.00;;;19.00;99.90;;;;;;5012605;28;20070;-75
2022/10/21 01:38:10;;;;;;;8.65;5.20;;;19.00;99.90;;;;;;5012568;28;20065;-77
2022/10/21 01:40:57;;;;;;;7.35;5.40;;;18.90;99.90;;;;;;5012362;28;20117;-76
2022/10/21 01:43:44;;;;;;;6.50;4.43;;;18.90;99.90;;;;;;5012992;28;20120;-77
2022/10/21 01:46:21;;;;;;;8.00;4.88;;;19.00;99.90;;;;;;5012778;28;20045;-77
2022/10/21 01:48:53;;;;;;;10.00;5.10;;;18.90;99.90;;;;;;5012807;28;20057;-77
2022/10/21 01:51:21;;;;;;;6.53;4.65;;;19.00;99.90;;;;;;5012609;28;20387;-77
2022/10/21 01:53:59;;;;;;;9.20;4.72;;;19.00;99.90;;;;;;5012494;28;20528;-76
2022/10/21 01:56:27;;;;;;;7.60;4.97;;;19.00;99.90;;;;;;5012671;28;20160;-75
2022/10/21 01:58:54;;;;;;;7.80;4.90;;;19.00;99.90;;;;;;5012213;28;20076;-77
2022/10/21 02:01:22;;;;;;;9.40;5.07;;;19.00;99.90;;;;;;4994438;28;20022;-75
2022/10/21 02:03:55;;;;;;;9.75;5.03;;;18.90;99.90;;;;;;5012101;28;20033;-75
2022/10/21 02:06:24;;;;;;;7.53;5.00;;;18.90;99.90;;;;;;5012532;28;20052;-75
2022/10/21 02:08:50;;;;;;;8.90;4.95;;;18.80;99.90;;;;;;5012523;28;20034;-77
2022/10/21 02:11:17;;;;;;;8.40;4.93;;;18.70;99.90;;;;;;5012049;28;20037;-77
2022/10/21 02:14:24;;;;;;;9.98;5.88;;;18.70;99.90;;;;;;5012188;28;20034;-78
2022/10/21 02:16:53;;;;;;;10.52;5.38;;;18.60;99.90;;;;;;5012305;28;20069;-75
2022/10/21 02:19:20;;;;;;;10.43;5.55;;;18.60;99.90;;;;;;5012066;28;20084;-77
2022/10/21 02:21:48;;;;;;;6.43;4.53;;;18.60;99.90;;;;;;5026758;28;20053;-75
2022/10/21 02:24:39;;;;;;;9.80;5.30;;;18.70;99.90;;;;;;5012154;28;20462;-76
2022/10/21 02:27:06;;;;;;;7.22;4.68;;;18.60;99.90;;;;;;5012069;28;20038;-75
2022/10/21 02:29:39;;;;;;;12.43;5.15;;;18.60;99.90;;;;;;5011711;28;20076;-77
2022/10/21 02:32:27;;;;;;;9.25;5.10;;;18.60;99.90;;;;;;5014612;28;20038;-76
2022/10/21 02:35:30;;;;;;;8.88;4.93;;;18.50;99.90;;;;;;5011739;28;20022;-76
2022/10/21 02:38:22;;;;;;;8.88;4.90;;;18.60;99.90;;;;;;5011660;28;20084;-76
2022/10/21 02:41:02;;;;;;;8.70;5.57;;;18.60;99.90;;;;;;5011862;28;20048;-75
2022/10/21 02:43:44;;;;;;;6.93;5.15;;;18.50;99.90;;;;;;5011756;28;20033;-76
2022/10/21 02:46:12;;;;;;;7.57;5.40;;;18.50;99.90;;;;;;5011764;28;20033;-76
2022/10/21 02:48:46;;;;;;;9.98;5.57;;;18.40;99.90;;;;;;5011628;28;20450;-76
2022/10/21 02:51:14;;;;;;;9.00;5.70;;;18.40;99.90;;;;;;5027064;28;20033;-75
2022/10/21 02:53:41;;;;;;;9.45;5.57;;;18.40;99.90;;;;;;5011482;28;20125;-77
2022/10/21 02:56:07;;;;;;;8.32;5.72;;;18.30;99.90;;;;;;5011594;28;20108;-75
2022/10/21 02:58:33;;;;;;;10.50;5.75;;;18.30;99.90;;;;;;5011727;28;20022;-77
2022/10/21 03:01:00;;;;;;;8.43;5.75;;;18.30;99.90;;;;;;5011541;28;20022;-76
2022/10/21 03:03:28;;;;;;;7.82;5.82;;;18.30;99.90;;;;;;5011478;28;20482;-75
2022/10/21 03:05:54;;;;;;;8.70;5.72;;;18.30;99.90;;;;;;4993421;28;20524;-76
2022/10/21 03:08:24;;;;;;;9.43;5.78;;;18.30;99.90;;;;;;5011003;28;20095;-75
2022/10/21 03:10:51;;;;;;;9.43;5.50;;;18.30;99.90;;;;;;5011777;28;20022;-76
2022/10/21 03:13:18;;;;;;;10.40;5.57;;;18.20;99.90;;;;;;5011862;28;20021;-76
2022/10/21 03:15:46;;;;;;;11.65;6.22;;;18.20;99.90;;;;;;5011657;28;20449;-75
2022/10/21 03:18:14;;;;;;;8.65;5.72;;;18.20;99.90;;;;;;4993621;28;20030;-75
2022/10/21 03:20:40;;;;;;;7.45;5.10;;;18.20;99.90;;;;;;5026117;28;20030;-75
2022/10/21 03:23:07;;;;;;;8.57;5.53;;;18.30;99.90;;;;;;5010982;28;20513;-75
2022/10/21 03:25:33;;;;;;;8.27;5.30;;;18.30;99.90;;;;;;5011937;28;20037;-75
2022/10/21 03:27:59;;;;;;;9.50;5.90;;;18.30;99.90;;;;;;5012368;28;20396;-75
2022/10/21 03:30:25;;;;;;;10.48;5.47;;;18.30;99.90;;;;;;5011765;28;20041;-74
2022/10/21 03:32:51;;;;;;;8.15;5.50;;;18.20;99.90;;;;;;5011214;28;20026;-76
2022/10/21 03:35:17;;;;;;;11.20;4.93;;;18.30;99.90;;;;;;5011383;28;20157;-76
2022/10/21 03:37:44;;;;;;;9.48;5.57;;;18.30;99.90;;;;;;5011431;28;20025;-76
2022/10/21 03:40:11;;;;;;;9.27;5.00;;;18.40;99.90;;;;;;5012128;28;20115;-76
2022/10/21 03:42:39;;;;;;;8.95;5.50;;;18.40;99.90;;;;;;5012084;28;20034;-76
2022/10/21 03:45:10;;;;;;;10.13;5.22;;;18.30;99.90;;;;;;5011884;28;20148;-75
2022/10/21 03:47:37;;;;;;;10.77;5.35;;;18.40;99.90;;;;;;5012126;28;20503;-77
2022/10/21 03:50:06;;;;;;;9.65;5.40;;;18.30;99.90;;;;;;5011681;28;20029;-76
2022/10/21 03:52:32;;;;;;;9.88;5.00;;;18.30;99.90;;;;;;5026459;28;20497;-77
2022/10/21 03:54:59;;;;;;;9.20;5.55;;;18.40;99.90;;;;;;5011690;28;20105;-76
2022/10/21 03:57:25;;;;;;;;;;;18.40;99.90;;;;;;5012319;28;20033;-76
2022/10/21 03:59:51;;;;;;;9.98;5.15;;;18.40;99.90;;;;;;5012089;28;19925;-76
2022/10/21 04:02:17;;;;;;;8.20;5.40;;;18.40;99.90;;;;;;5011690;28;20428;-77
2022/10/21 04:04:43;;;;;;;8.77;5.25;;;18.40;99.90;;;;;;5011935;28;20472;-77
2022/10/21 04:07:15;;;;;;;8.80;5.78;;;18.40;99.90;;;;;;5011877;28;20505;-77
2022/10/21 04:09:42;;;;;;;10.50;5.35;;;18.40;99.90;;;;;;5011945;28;20374;-77
2022/10/21 04:12:08;;;;;;;6.65;4.90;;;18.30;99.90;;;;;;5026499;28;20337;-77
2022/10/21 04:14:34;;;;;;;8.25;5.28;;;18.20;99.90;;;;;;5011928;28;20034;-77
2022/10/21 04:17:16;;;;;;;8.32;5.25;;;18.20;99.90;;;;;;5011583;28;20385;-77
2022/10/21 04:19:42;;;;;;;8.75;5.88;;;18.10;99.90;;;;;;5012435;28;20018;-76
2022/10/21 04:22:08;;;;;;;10.45;5.40;;;18.20;99.90;;;;;;5016077;28;20129;-76
2022/10/21 04:24:34;;;;;;;10.23;5.68;;;18.20;99.90;;;;;;5016551;28;20062;-77
2022/10/21 04:27:01;;;;;;;10.52;5.32;;;18.20;99.90;;;;;;5031472;28;20465;-77
2022/10/21 04:29:27;;;;;;;9.77;5.57;;;18.20;99.90;;;;;;5016296;28;20058;-77
2022/10/21 04:31:53;;;;;;;10.35;5.38;;;18.20;99.90;;;;;;5015932;28;20477;-77
2022/10/21 04:34:19;;;;;;;9.02;4.78;;;18.20;99.90;;;;;;5016291;28;20022;-77
2022/10/21 04:36:45;;;;;;;9.25;5.22;;;18.20;99.90;;;;;;5031880;28;20042;-76
2022/10/21 04:39:12;;;;;;;8.50;5.57;;;18.20;99.90;;;;;;5016161;28;20028;-77
2022/10/21 04:41:39;;;;;;;8.40;5.32;;;18.20;99.90;;;;;;5015524;28;20042;-76
2022/10/21 04:44:06;;;;;;;8.45;4.95;;;18.30;99.90;;;;;;5015370;28;20071;-75
2022/10/21 04:46:44;;;;;;;8.48;4.80;;;18.30;99.90;;;;;;4997890;28;20030;-75
2022/10/21 04:49:10;;;;;;;7.95;4.80;;;18.30;99.90;;;;;;5016023;28;20018;-76
2022/10/21 04:51:36;;;;;;;6.85;4.15;;;18.40;99.90;;;;;;5015914;28;20344;-76
2022/10/21 04:54:08;;;;;;;13.88;4.65;;;18.50;99.90;;;;;;5015302;28;20072;-77
2022/10/21 04:56:34;;;;;;;7.07;4.75;;;18.50;99.90;;;;;;5014930;28;20037;-75
2022/10/21 04:59:02;;;;;;;6.65;4.20;;;18.50;99.90;;;;;;5015203;28;20103;-71
2022/10/21 05:01:29;;;;;;;7.30;4.38;;;18.60;99.90;;;;;;5015683;28;20033;-76
2022/10/21 05:03:56;;;;;;;10.32;5.40;;;18.60;99.90;;;;;;5015251;28;20030;-76
2022/10/21 05:06:22;;;;;;;;;;;18.60;99.90;;;;;;4997798;28;20072;-76
2022/10/21 05:08:49;;;;;;;12.60;5.70;;;18.50;99.90;;;;;;5015571;28;19937;-77
2022/10/21 05:11:15;;;;;;;6.32;4.60;;;18.50;99.90;;;;;;5014920;28;20033;-75
2022/10/21 05:13:42;;;;;;;6.95;5.28;;;18.40;99.90;;;;;;5015435;28;20030;-76
2022/10/21 05:16:08;;;;;;;9.23;5.50;;;18.50;99.90;;;;;;5015434;28;20026;-76
2022/10/21 05:18:43;;;;;;;7.20;5.10;;;18.50;99.90;;;;;;4997647;28;20049;-76
2022/10/21 05:21:10;;;;;;;10.73;4.63;;;18.40;99.90;;;;;;5015287;28;20032;-77
2022/10/21 05:23:36;;;;;;;9.80;4.80;;;18.40;99.90;;;;;;5014852;28;20132;-77
2022/10/21 05:26:02;;;;;;;8.68;4.63;;;18.50;99.90;;;;;;4997972;28;20081;-78
2022/10/21 05:28:31;;;;;;;7.05;4.25;;;18.60;99.90;;;;;;5015288;28;20057;-78
2022/10/21 05:30:57;;;;;;;8.60;5.53;;;18.70;99.90;;;;;;5014401;28;20033;-77
2022/10/21 05:33:24;;;;;;;10.05;5.10;;;18.70;99.90;;;;;;5013479;28;20094;-78
2022/10/21 05:36:03;;;;;;;9.90;5.72;;;18.70;99.90;;;;;;5014074;28;20049;-77
2022/10/21 05:38:31;;;;;;;10.63;5.68;;;18.60;99.90;;;;;;5013836;28;20037;-78
2022/10/21 05:40:58;;;;;;;9.70;5.40;;;18.60;99.90;;;;;;5014219;28;20038;-76
2022/10/21 05:43:26;;;;;;;9.88;5.40;;;18.50;99.90;;;;;;4995647;28;20041;-76
2022/10/21 05:45:52;;;;;;;9.88;5.45;;;18.50;99.90;;;;;;5013567;28;20097;-75
2022/10/21 05:48:19;;;;;;;9.63;5.60;;;18.60;99.90;;;;;;5013184;28;20164;-77
2022/10/21 05:50:46;;;;;;;9.82;4.80;;;18.90;99.90;;;;;;5013704;28;20026;-76
2022/10/21 05:53:13;;;;;;;9.35;4.82;;;19.50;99.90;;;;;;5012959;28;20127;-76
2022/10/21 05:55:39;;;;;;;10.15;5.03;;;20.20;99.90;;;;;;5012892;28;20030;-76
2022/10/21 05:58:05;;;;;;;6.38;4.47;;;20.80;99.90;;;;;;5012899;28;20026;-76
2022/10/21 06:00:31;;;;;;;9.82;4.55;;;21.50;99.90;;;;;;5012731;28;20045;-78
2022/10/21 06:02:59;;;;;;;6.72;4.82;;;22.00;99.90;;;;;;5012734;28;20121;-75
2022/10/21 06:05:25;;;;;;;13.68;4.70;;;22.50;99.90;;;;;;5012486;28;20026;-77
2022/10/21 06:07:52;;;;;;;7.65;4.45;;;23.00;99.90;;;;;;5012675;28;20041;-77
2022/10/21 06:10:18;;;;;;;9.80;4.38;;;23.40;99.90;;;;;;5012653;28;20084;-76
2022/10/21 06:12:47;;;;;;;6.90;4.25;;;23.90;99.90;;;;;;5012697;28;20028;-78
2022/10/21 06:15:13;;;;;;;9.80;4.50;;;24.20;99.90;;;;;;4994833;28;20026;-78
2022/10/21 06:17:39;;;;;;;6.45;3.78;;;24.80;99.90;;;;;;5012499;28;20113;-76
2022/10/21 06:20:07;;;;;;;7.70;3.97;;;25.40;99.90;;;;;;5012433;28;20093;-76
2022/10/21 06:22:33;;;;;;;9.77;4.10;;;26.20;99.90;;;;;;5012240;28;20050;-77
2022/10/21 06:24:59;;;;;;;6.38;3.50;;;26.50;99.90;;;;;;5012389;28;20026;-77
2022/10/21 06:27:33;;;;;;;8.52;4.05;;;26.60;99.90;;;;;;5012206;28;20410;-78
2022/10/21 06:29:59;;;;;;;5.93;3.35;;;27.40;99.90;;;;;;5012486;28;20020;-76
2022/10/21 06:32:25;;;;;;;6.47;3.78;;;27.80;99.90;;;;;;5012128;28;20042;-76
2022/10/21 06:34:52;;;;;;;6.00;3.42;;;27.90;99.90;;;;;;4994780;28;20402;-78
2022/10/21 06:37:18;;;;;;;6.10;3.55;;;27.70;99.90;;;;;;5012031;28;20063;-78
2022/10/21 06:39:44;;;;;;;7.68;3.20;;;27.60;99.90;;;;;;5012150;28;20032;-78
2022/10/21 06:42:10;;;;;;;8.68;3.50;;;27.60;99.90;;;;;;4994142;28;20105;-78
2022/10/21 06:44:36;;;;;;;5.07;3.20;;;28.30;99.90;;;;;;4993957;28;20032;-78
2022/10/21 06:47:02;;;;;;;6.85;3.40;;;28.60;99.90;;;;;;5012301;28;20381;-77
2022/10/21 06:49:30;;;;;;;6.50;3.97;;;28.70;99.90;;;;;;5012194;28;20473;-77
2022/10/21 06:51:56;;;;;;;8.50;3.63;;;29.20;99.90;;;;;;5012488;28;20405;-77
2022/10/21 06:54:22;;;;;;;;;;;29.20;99.90;;;;;;5012816;28;20121;-76
2022/10/21 06:56:48;;;;;;;9.73;3.60;;;29.10;99.90;;;;;;5026921;28;19905;-78
2022/10/21 06:59:29;;;;;;;5.90;3.55;;;29.40;99.90;;;;;;5012364;28;20022;-77
2022/10/21 07:01:58;;;;;;;7.63;3.75;;;29.30;99.90;;;;;;5012199;28;20033;-73
2022/10/21 07:04:25;;;;;;;4.25;2.95;;;29.70;99.90;;;;;;5011938;28;20049;-78
2022/10/21 07:06:51;;;;;;;7.90;3.47;;;29.00;99.90;;;;;;5012191;28;20044;-77
2022/10/21 07:09:18;;;;;;;5.85;3.53;;;28.30;99.90;;;;;;5012335;28;20373;-77
2022/10/21 07:11:44;;;;;;;7.93;3.63;;;27.60;99.90;;;;;;5011913;28;20468;-76
2022/10/21 07:14:11;;;;;;;7.32;3.20;;;27.30;99.90;;;;;;5011955;28;20033;-76
2022/10/21 07:16:37;;;;;;;7.82;3.67;;;27.40;99.90;;;;;;4994579;28;20029;-77
2022/10/21 07:19:03;;;;;;;;;;;27.40;99.90;;;;;;4994809;28;20035;-75
2022/10/21 07:21:31;;;;;;;8.13;4.00;;;26.30;99.90;;;;;;5011872;28;19912;-76
2022/10/21 07:23:58;;;;;;;8.60;3.45;;;26.40;99.90;;;;;;4993586;28;20049;-76
2022/10/21 07:26:28;;;;;;;10.20;3.92;;;25.60;99.90;;;;;;4993770;28;20028;-76
2022/10/21 07:28:57;;;;;;;6.30;4.15;;;25.00;99.90;;;;;;5011822;28;20032;-76
2022/10/21 07:31:23;;;;;;;6.45;4.30;;;24.70;99.90;;;;;;5011460;28;20073;-76
2022/10/21 07:33:49;;;;;;;9.35;4.25;;;24.40;99.90;;;;;;5011210;28;20022;-75
2022/10/21 07:36:19;;;;;;;7.13;4.15;;;24.40;99.90;;;;;;5011712;28;20034;-75
2022/10/21 07:38:47;;;;;;;7.13;4.60;;;24.50;99.90;;;;;;5011786;28;20026;-75
2022/10/21 07:41:19;;;;;;;7.50;4.53;;;24.50;99.90;;;;;;5011157;28;20022;-76
2022/10/21 07:43:47;;;;;;;6.70;4.55;;;24.60;99.90;;;;;;5011442;28;20374;-74
2022/10/21 07:46:14;;;;;;;7.78;4.82;;;24.40;99.90;;;;;;5011466;28;20022;-75
2022/10/21 07:48:41;;;;;;;7.80;4.40;;;24.30;99.90;;;;;;5011146;28;20034;-75
2022/10/21 07:51:10;;;;;;;9.07;4.93;;;24.20;99.90;;;;;;5010561;28;20021;-74
2022/10/21 07:53:36;;;;;;;14.13;5.00;;;24.40;99.90;;;;;;5010154;28;20128;-75
2022/10/21 07:56:15;;;;;;;10.57;4.80;;;24.30;99.90;;;;;;4996132;28;20040;-76
2022/10/21 07:59:30;;;;;;;6.78;4.28;;;24.60;99.90;;;;;;4980606;28;20092;-75
2022/10/21 08:01:58;;;;;;;9.95;5.25;;;24.80;99.90;;;;;;5013791;28;20115;-76
2022/10/21 08:04:28;;;;;;;13.18;5.30;;;24.80;99.90;;;;;;4996191;28;20117;-74
2022/10/21 08:06:58;;;;;;;7.70;4.38;;;25.20;99.90;;;;;;5014032;28;20037;-74
2022/10/21 08:09:25;;;;;;;9.43;4.85;;;25.10;99.90;;;;;;5014440;28;20144;-75
2022/10/21 08:11:59;;;;;;;7.53;4.40;;;25.10;99.90;;;;;;5014297;28;20080;-75
2022/10/21 08:14:25;;;;;;;6.45;4.32;;;25.30;99.90;;;;;;4996105;28;20025;-76
2022/10/21 08:16:54;;;;;;;8.30;4.45;;;25.10;99.90;;;;;;5014478;28;20021;-75
2022/10/21 08:19:26;;;;;;;7.45;5.00;;;24.90;99.90;;;;;;5014839;28;20108;-75
2022/10/21 08:21:52;;;;;;;9.00;4.50;;;24.90;99.90;;;;;;5014194;28;20033;-75
2022/10/21 08:24:18;;;;;;;7.10;4.35;;;24.80;99.90;;;;;;5014698;28;20038;-76
2022/10/21 08:26:45;;;;;;;10.75;4.75;;;24.40;99.90;;;;;;5014882;28;20026;-75
2022/10/21 08:29:12;;;;;;;9.05;4.57;;;24.40;99.90;;;;;;4996747;28;20036;-76
2022/10/21 08:31:38;;;;;;;8.00;4.63;;;24.70;99.90;;;;;;5015069;28;20038;-74
2022/10/21 08:34:04;;;;;;;8.50;4.65;;;24.70;99.90;;;;;;4996712;28;20025;-75
2022/10/21 08:36:32;;;;;;;6.65;4.45;;;24.60;99.90;;;;;;4996408;28;20116;-75
2022/10/21 08:38:59;;;;;;;7.15;4.47;;;24.70;99.90;;;;;;5014534;28;20034;-74
2022/10/21 08:41:28;;;;;;;9.93;4.60;;;24.80;99.90;;;;;;5014168;28;20034;-74
2022/10/21 08:44:26;;;;;;;9.13;4.72;;;24.90;99.90;;;;;;5014217;28;20030;-75
2022/10/21 08:47:12;;;;;;;9.55;4.53;;;24.80;99.90;;;;;;4945663;28;20055;-73
2022/10/21 08:49:54;;;;;;;10.88;4.60;;;24.70;99.90;;;;;;4996524;28;20037;-74
2022/10/21 08:52:41;;;;;;;9.05;4.45;;;24.80;99.90;;;;;;5014071;28;20485;-74
2022/10/21 08:55:36;;;;;;;8.52;4.50;;;24.90;99.90;;;;;;5014387;28;20076;-73
2022/10/21 08:58:03;;;;;;;7.47;4.40;;;24.90;99.90;;;;;;5011185;28;20030;-74
2022/10/21 09:00:46;;;;;;;6.60;4.30;;;25.10;99.90;;;;;;4995985;28;20057;-74
2022/10/21 09:03:30;;;;;;;9.27;4.63;;;25.20;99.90;;;;;;5012716;28;20473;-74
2022/10/21 09:06:35;;;;;;;7.70;3.97;;;25.20;99.90;;;;;;5011787;28;20030;-74
2022/10/21 09:09:13;;;;;;;8.37;4.80;;;25.00;99.90;;;;;;5013902;28;20331;-75
2022/10/21 09:12:07;;;;;;;8.43;4.50;;;25.00;99.90;;;;;;5013975;28;20368;-74
2022/10/21 09:15:03;;;;;;;9.40;4.70;;;25.00;99.90;;;;;;5013694;28;20030;-75
2022/10/21 09:17:41;;;;;;;7.90;4.90;;;25.10;99.90;;;;;;5013739;28;20370;-74
2022/10/21 09:20:22;;;;;;;9.10;4.45;;;25.10;99.90;;;;;;5013738;28;20422;-75
2022/10/21 09:23:03;;;;;;;8.15;4.80;;;25.30;99.90;;;;;;5013428;28;20065;-75
2022/10/21 09:25:51;;;;;;;9.75;5.25;;;25.10;99.90;;;;;;5013243;28;20156;-75
2022/10/21 09:28:17;;;;;;;7.10;4.55;;;25.00;99.90;;;;;;5013259;28;20030;-76
2022/10/21 09:30:44;;;;;;;10.07;5.18;;;25.10;99.90;;;;;;5013020;28;20029;-75
2022/10/21 09:33:24;;;;;;;9.48;4.95;;;25.00;99.90;;;;;;5012963;28;20149;-75
2022/10/21 09:35:58;;;;;;;10.90;5.72;;;25.00;99.90;;;;;;5013509;28;20029;-76
2022/10/21 09:38:32;;;;;;;8.85;4.55;;;25.20;99.90;;;;;;4995892;28;20026;-76
2022/10/21 09:41:02;;;;;;;11.50;5.07;;;25.40;99.90;;;;;;5013542;28;20026;-76
2022/10/21 09:43:29;;;;;;;9.70;4.97;;;25.60;99.90;;;;;;5013569;28;20065;-76
2022/10/21 09:45:57;;;;;;;9.70;4.70;;;25.70;99.90;;;;;;5013102;28;20053;-75
2022/10/21 09:48:44;;;;;;;7.55;4.78;;;25.70;99.90;;;;;;5013026;28;20104;-76
2022/10/21 09:51:20;;;;;;;6.93;4.97;;;25.70;99.90;;;;;;5013074;28;20026;-76
2022/10/21 09:54:03;;;;;;;8.48;4.30;;;25.80;99.90;;;;;;5013034;28;20034;-75
2022/10/21 09:56:35;;;;;;;9.68;4.70;;;25.80;99.90;;;;;;5012881;28;20033;-77
2022/10/21 09:59:17;;;;;;;8.13;4.53;;;26.00;99.90;;;;;;5012738;28;20112;-76
2022/10/21 10:01:45;;;;;;;9.82;4.85;;;25.90;99.90;;;;;;5012345;28;20034;-76
2022/10/21 10:04:43;;;;;;;16.63;4.70;;;25.90;99.90;;;;;;5012721;28;20034;-76
2022/10/21 10:07:35;;;;;;;9.35;4.60;;;25.90;99.90;;;;;;4971101;28;20042;-77
2022/10/21 10:10:31;;;;;;;9.32;4.50;;;26.00;99.90;;;;;;4971020;28;20118;-77
2022/10/21 10:12:59;;;;;;;7.22;4.88;;;26.10;99.90;;;;;;4954769;28;20035;-74
2022/10/21 10:15:36;;;;;;;9.95;4.95;;;25.80;99.90;;;;;;4970831;28;20038;-77
2022/10/21 10:18:03;;;;;;;9.55;4.35;;;25.80;99.90;;;;;;4971145;28;20043;-76
2022/10/21 10:20:44;;;;;;;9.02;4.88;;;25.90;99.90;;;;;;4971101;28;20039;-77
2022/10/21 10:23:17;;;;;;;7.35;4.80;;;25.80;99.90;;;;;;4971251;28;20051;-76
2022/10/21 10:25:49;;;;;;;6.88;4.78;;;26.00;99.90;;;;;;4971436;28;20082;-75
2022/10/21 10:28:22;;;;;;;12.57;5.28;;;25.70;99.90;;;;;;4971519;28;20106;-75
2022/10/21 10:30:55;;;;;;;7.65;4.38;;;25.90;99.90;;;;;;4971530;28;20031;-76
2022/10/21 10:33:50;;;;;;;8.35;4.38;;;26.00;99.90;;;;;;4954645;28;20031;-76
2022/10/21 10:36:29;;;;;;;9.27;4.97;;;25.90;99.90;;;;;;4971239;28;20376;-75
2022/10/21 10:38:57;;;;;;;11.70;4.72;;;25.80;99.90;;;;;;4971680;28;20097;-76
2022/10/21 10:41:36;;;;;;;9.18;4.43;;;25.90;99.90;;;;;;4971560;28;20025;-76
2022/10/21 10:44:28;;;;;;;8.30;5.00;;;26.00;99.90;;;;;;5012217;28;20061;-76
2022/10/21 10:46:59;;;;;;;10.40;4.55;;;25.90;99.90;;;;;;5012705;28;20045;-76
2022/10/21 10:49:44;;;;;;;9.00;4.65;;;26.00;99.90;;;;;;5012731;28;20577;-74
2022/10/21 10:52:20;;;;;;;12.27;5.28;;;26.10;99.90;;;;;;5012042;28;20081;-77
2022/10/21 10:54:47;;;;;;;8.77;4.47;;;26.00;99.90;;;;;;5012103;28;20051;-76
2022/10/21 10:57:35;;;;;;;9.90;4.90;;;25.90;99.90;;;;;;5012289;28;20454;-75
2022/10/21 11:00:04;;;;;;;7.57;4.40;;;25.60;99.90;;;;;;4993964;28;20033;-76
2022/10/21 11:02:37;;;;;;;9.57;4.70;;;25.60;99.90;;;;;;5012461;28;20034;-76
2022/10/21 11:05:32;;;;;;;10.95;4.90;;;25.80;99.90;;;;;;5012386;28;20022;-76
2022/10/21 11:08:00;;;;;;;;;;;25.90;99.90;;;;;;5012473;28;20068;-76
2022/10/21 11:10:47;;;;;;;7.97;4.70;;;26.00;99.90;;;;;;5012264;28;19916;-77
2022/10/21 11:13:19;;;;;;;9.13;4.55;;;25.90;99.90;;;;;;4993608;28;20140;-77
2022/10/21 11:15:56;;;;;;;7.65;4.68;;;26.00;99.90;;;;;;5011523;28;20022;-77
2022/10/21 11:18:51;;;;;;;7.05;4.63;;;26.10;99.90;;;;;;5011952;28;20096;-76
2022/10/21 11:21:38;;;;;;;9.17;4.83;;;26.10;99.90;;;;;;5012272;28;20123;-77
2022/10/21 11:24:15;;;;;;;8.50;4.60;;;26.10;99.90;;;;;;5011653;28;20049;-76
2022/10/21 11:26:57;;;;;;;7.38;4.47;;;25.90;99.90;;;;;;4994104;28;20330;-77
2022/10/21 11:29:53;;;;;;;7.85;4.30;;;25.80;99.90;;;;;;4994655;28;20022;-76
2022/10/21 11:32:53;;;;;;;11.98;6.55;;;25.90;99.90;;;;;;5011834;28;20164;-78
2022/10/21 11:35:42;;;;;;;8.23;4.38;;;26.00;99.90;;;;;;5005772;28;20022;-76
2022/10/21 11:38:33;;;;;;;8.13;4.25;;;26.20;99.90;;;;;;5018956;28;20030;-77
2022/10/21 11:41:18;;;;;;;8.63;4.53;;;26.30;99.90;;;;;;5012112;28;20488;-78
2022/10/21 11:43:59;;;;;;;17.23;4.80;;;26.50;99.90;;;;;;5011936;28;20034;-79
2022/10/21 11:47:02;;;;;;;7.47;4.43;;;26.40;99.90;;;;;;5012413;28;20022;-77
2022/10/21 11:49:48;;;;;;;12.52;4.53;;;26.20;99.90;;;;;;5011746;28;20080;-77
2022/10/21 11:52:46;;;;;;;7.50;4.82;;;26.10;99.90;;;;;;5011378;28;20040;-78
2022/10/21 11:55:38;;;;;;;9.90;5.07;;;26.10;99.90;;;;;;4995426;28;20366;-78
2022/10/21 11:58:22;;;;;;;8.95;4.82;;;26.10;99.90;;;;;;5004067;28;20037;-77
2022/10/21 12:01:22;;;;;;;9.48;4.35;;;26.10;99.90;;;;;;5011612;28;20029;-77
2022/10/21 12:03:57;;;;;;;12.48;4.60;;;26.00;99.90;;;;;;5011184;28;20104;-77
2022/10/21 12:06:47;;;;;;;9.10;4.80;;;26.10;99.90;;;;;;5020986;23;20077;-75
2022/10/21 12:09:33;;;;;;;7.75;4.75;;;26.10;99.90;;;;;;5013232;28;20140;-77
2022/10/21 12:12:18;;;;;;;8.52;4.50;;;26.20;99.90;;;;;;5031709;28;20040;-73
2022/10/21 12:14:56;;;;;;;9.60;4.83;;;26.00;99.90;;;;;;5031307;28;20127;-76
2022/10/21 12:17:27;;;;;;;11.38;5.15;;;25.80;99.90;;;;;;5031836;28;20771;-74
2022/10/21 12:19:57;;;;;;;8.75;5.00;;;25.90;99.90;;;;;;5032299;28;20026;-76
2022/10/21 12:22:26;;;;;;;7.78;4.63;;;25.90;99.90;;;;;;5032068;28;20117;-73
2022/10/21 12:25:04;;;;;;;10.95;4.85;;;26.00;99.90;;;;;;5032279;28;20070;-75
2022/10/21 12:27:52;;;;;;;9.20;4.80;;;25.90;99.90;;;;;;5032167;28;20017;-75
2022/10/21 12:30:23;;;;;;;8.40;4.95;;;25.80;99.90;;;;;;5032404;28;20034;-75
2022/10/21 12:32:58;;;;;;;8.60;4.93;;;26.00;99.90;;;;;;5032306;28;20025;-74
2022/10/21 12:35:52;;;;;;;10.18;5.00;;;26.00;99.90;;;;;;5032465;28;20034;-75
2022/10/21 12:38:50;;;;;;;11.30;5.18;;;26.20;99.90;;;;;;5031820;28;20099;-74
2022/10/21 12:41:33;;;;;;;9.05;4.70;;;26.20;99.90;;;;;;5032959;28;20167;-74
2022/10/21 12:44:03;;;;;;;9.43;5.30;;;26.20;99.90;;;;;;5017622;28;20501;-74
2022/10/21 12:47:02;;;;;;;9.75;4.90;;;26.10;99.90;;;;;;5035655;28;20021;-76
2022/10/21 12:49:32;;;;;;;11.38;5.15;;;26.20;99.90;;;;;;4954730;29;20042;-75
2022/10/21 12:52:19;;;;;;;7.85;5.13;;;26.10;99.90;;;;;;4954372;29;20035;-76
2022/10/21 12:54:53;;;;;;;8.20;5.45;;;26.10;99.90;;;;;;4954950;29;20055;-78
2022/10/21 12:57:33;;;;;;;9.25;5.00;;;26.20;99.90;;;;;;4954390;29;20035;-77
2022/10/21 13:21:59;;;;;;;8.93;5.57;;;25.80;99.90;;;;;;4984266;28;20054;-74
2022/10/21 13:24:33;;;;;;;7.20;5.25;;;25.60;99.90;;;;;;4994818;28;20042;-76
2022/10/21 13:27:22;;;;;;;11.27;5.85;;;25.80;99.90;;;;;;4995118;28;20403;-76
2022/10/21 13:29:49;;;;;;;10.43;5.80;;;25.70;99.90;;;;;;4995182;28;20057;-77
2022/10/21 13:32:17;;;;;;;10.02;6.03;;;25.80;99.90;;;;;;4977544;28;20034;-73
2022/10/21 13:35:19;;;;;;;7.40;4.90;;;26.00;99.90;;;;;;4995378;28;20118;-76
2022/10/21 13:38:19;;;;;;;9.52;5.57;;;25.90;99.90;;;;;;4994889;28;20058;-76
2022/10/21 13:40:49;;;;;;;8.63;5.75;;;25.90;99.90;;;;;;4994785;28;20030;-76